Time;durP1;ratioP1;P1;durP2;ratioP2;P2;SDS_P1;SDS_P2;PMS_P1;PMS_P2;Temp;Humidity;BMP_temperature;BMP_pressure;BME280_temperature;BME280_humidity;BME280_pressure;Samples;Min_cycle;Max_cycle;Signal;HPM_P1;HPM_P2
2023/06/24 00:02:10;;;;;;;5.50;3.80;;;;;;;18.93;66.28;100520.15;104314;276;93892;-56
2023/06/24 00:04:44;;;;;;;5.70;4.20;;;;;;;18.91;66.29;100519.78;104346;276;97007;-56
2023/06/24 00:07:21;;;;;;;5.40;4.20;;;;;;;18.90;66.52;100518.11;104346;276;120348;-56
2023/06/24 00:09:55;;;;;;;6.10;3.60;;;;;;;18.91;66.53;100518.35;104388;276;103492;-56
2023/06/24 00:12:29;;;;;;;4.90;3.80;;;;;;;18.90;66.72;100526.05;104801;276;114150;-56
2023/06/24 00:15:04;;;;;;;4.30;3.70;;;;;;;18.90;66.80;100531.91;104364;277;93620;-54
2023/06/24 00:17:38;;;;;;;5.50;4.20;;;;;;;18.88;66.86;100531.05;104393;276;97737;-53
2023/06/24 00:20:14;;;;;;;5.40;4.40;;;;;;;18.88;66.98;100532.35;104853;276;120735;-57
2023/06/24 00:22:48;;;;;;;6.00;4.10;;;;;;;18.86;67.06;100531.81;104354;276;103762;-57
2023/06/24 00:25:22;;;;;;;4.80;4.10;;;;;;;18.85;67.17;100530.21;104345;265;113237;-57
2023/06/24 00:27:56;;;;;;;5.00;4.00;;;;;;;18.85;67.22;100530.11;104357;276;95983;-57
2023/06/24 00:30:30;;;;;;;4.70;3.80;;;;;;;18.81;67.28;100527.94;104347;276;97524;-54
2023/06/24 00:33:05;;;;;;;4.90;3.80;;;;;;;18.80;67.21;100529.48;104341;276;119494;-54
2023/06/24 00:35:39;;;;;;;5.50;4.10;;;;;;;18.76;67.38;100534.56;104335;276;105664;-56
2023/06/24 00:38:13;;;;;;;5.20;3.80;;;;;;;18.75;67.38;100546.52;104294;276;114057;-57
2023/06/24 00:40:47;;;;;;;5.90;4.20;;;;;;;18.73;67.50;100550.53;104078;278;94711;-53
2023/06/24 00:43:21;;;;;;;5.20;3.90;;;;;;;18.73;67.51;100554.85;104094;278;97865;-54
2023/06/24 00:45:56;;;;;;;5.20;4.00;;;;;;;18.69;67.58;100552.64;104340;276;118397;-54
2023/06/24 00:48:28;;;;;;;;;;;;;;;18.68;67.80;100553.80;104807;280;105118;-56
2023/06/24 00:51:03;;;;;;;5.40;4.40;;;;;;;18.64;67.79;100552.02;104280;277;113869;-53
2023/06/24 00:53:35;;;;;;;;;;;;;;;18.62;67.83;100557.60;104809;280;96250;-54
2023/06/24 00:56:14;;;;;;;6.40;4.40;;;;;;;18.60;68.10;100563.19;104367;276;97191;-54
2023/06/24 00:58:48;;;;;;;5.40;3.90;;;;;;;18.61;68.10;100566.01;104863;276;120222;-54
2023/06/24 01:01:23;;;;;;;5.40;3.80;;;;;;;18.61;68.29;100571.90;104364;276;105912;-53
2023/06/24 01:03:57;;;;;;;4.70;4.00;;;;;;;18.59;68.47;100578.04;104810;276;114750;-53
2023/06/24 01:06:32;;;;;;;5.00;3.90;;;;;;;18.57;68.75;100587.26;104828;276;94867;-53
2023/06/24 01:09:06;;;;;;;6.10;4.30;;;;;;;18.56;68.80;100585.96;104178;277;97622;-53
2023/06/24 01:11:41;;;;;;;6.30;4.10;;;;;;;18.53;68.89;100582.06;104816;276;120662;-53
2023/06/24 01:14:19;;;;;;;4.70;4.00;;;;;;;18.52;69.11;100580.98;104339;276;105197;-56
2023/06/24 01:17:16;;;;;;;4.80;4.20;;;;;;;18.51;69.03;100585.84;104780;276;113221;-56
2023/06/24 01:20:07;;;;;;;5.80;4.30;;;;;;;18.44;68.94;100587.28;104806;276;94239;-56
2023/06/24 01:23:35;;;;;;;6.90;4.80;;;;;;;18.41;69.20;100588.58;104365;276;97998;-56
2023/06/24 01:26:45;;;;;;;5.40;3.90;;;;;;;18.35;69.38;100586.29;104323;276;121548;-56
2023/06/24 01:29:58;;;;;;;4.70;4.20;;;;;;;18.31;69.44;100592.58;104789;276;105558;-56
2023/06/24 01:32:36;;;;;;;5.20;4.40;;;;;;;18.25;69.83;100595.13;104262;277;113145;-56
2023/06/24 01:35:17;;;;;;;5.20;4.40;;;;;;;18.20;69.83;100594.77;104325;277;94490;-57
2023/06/24 01:37:54;;;;;;;5.00;4.10;;;;;;;18.21;69.72;100595.95;104313;277;97583;-57
2023/06/24 01:40:32;;;;;;;5.70;4.50;;;;;;;18.18;70.13;100596.48;104310;277;119246;-53
2023/06/24 01:43:09;;;;;;;6.00;4.40;;;;;;;18.14;69.96;100593.27;104271;277;105397;-53
2023/06/24 01:45:47;;;;;;;5.40;4.50;;;;;;;18.09;70.09;100593.84;104323;277;114876;-57
2023/06/24 01:48:24;;;;;;;5.90;4.70;;;;;;;18.06;70.45;100592.77;104294;277;94812;-57
2023/06/24 01:51:05;;;;;;;5.50;4.30;;;;;;;18.07;70.49;100591.48;104810;277;98110;-57
2023/06/24 01:53:43;;;;;;;6.60;4.60;;;;;;;18.04;70.41;100592.20;104307;277;121043;-57
2023/06/24 01:56:20;;;;;;;6.50;4.70;;;;;;;17.97;70.57;100591.09;104793;277;103829;-57
2023/06/24 01:58:58;;;;;;;5.10;4.40;;;;;;;17.92;70.73;100586.91;104341;277;113769;-57
2023/06/24 02:01:33;;;;;;;7.50;4.80;;;;;;;17.89;70.75;100591.16;104311;277;96524;-57
2023/06/24 02:04:09;;;;;;;7.50;5.10;;;;;;;17.86;70.88;100590.63;104365;276;97676;-56
2023/06/24 02:06:44;;;;;;;6.70;5.00;;;;;;;17.80;70.97;100590.45;104820;276;120680;-56
2023/06/24 02:09:19;;;;;;;6.40;5.30;;;;;;;17.77;70.98;100584.83;104312;276;105278;-54
2023/06/24 02:11:54;;;;;;;6.40;4.80;;;;;;;17.73;71.05;100585.52;104766;277;114133;-53
2023/06/24 02:14:30;;;;;;;6.60;4.60;;;;;;;17.72;71.12;100591.66;104283;277;97052;-56
2023/06/24 02:17:07;;;;;;;7.80;5.40;;;;;;;17.70;71.31;100595.17;104748;277;96405;-56
2023/06/24 02:19:42;;;;;;;5.70;4.90;;;;;;;17.71;71.36;100597.39;104278;277;120676;-56
2023/06/24 02:22:18;;;;;;;5.90;4.60;;;;;;;17.73;71.45;100601.86;104759;277;105764;-56
2023/06/24 02:24:52;;;;;;;5.30;4.80;;;;;;;17.75;71.51;100601.96;104302;277;114651;-56
2023/06/24 02:27:27;;;;;;;6.60;4.90;;;;;;;17.77;71.30;100604.92;104793;277;94497;-56
2023/06/24 02:30:03;;;;;;;5.60;4.60;;;;;;;17.76;71.32;100608.09;104758;277;98048;-53
2023/06/24 02:32:38;;;;;;;6.10;4.70;;;;;;;17.76;71.54;100613.26;104292;277;119857;-53
2023/06/24 02:35:13;;;;;;;6.90;4.80;;;;;;;17.75;71.51;100614.82;104361;277;105917;-56
2023/06/24 02:37:47;;;;;;;6.60;5.00;;;;;;;17.74;71.72;100615.01;104289;277;113568;-56
2023/06/24 02:40:21;;;;;;;6.20;5.20;;;;;;;17.73;71.78;100615.65;104325;277;95782;-57
2023/06/24 02:42:55;;;;;;;6.60;4.90;;;;;;;17.74;71.74;100618.96;104363;277;96410;-56
2023/06/24 02:45:31;;;;;;;6.10;4.60;;;;;;;17.72;71.83;100614.73;104299;277;119164;-57
2023/06/24 02:48:06;;;;;;;6.20;4.90;;;;;;;17.71;71.87;100616.89;104766;277;105611;-57
2023/06/24 02:50:43;;;;;;;6.50;5.20;;;;;;;17.73;71.90;100620.27;104322;277;113836;-56
2023/06/24 02:53:18;;;;;;;6.60;4.90;;;;;;;17.70;71.87;100624.64;104300;277;94861;-56
2023/06/24 02:55:54;;;;;;;5.90;5.00;;;;;;;17.69;72.01;100630.67;104335;277;96251;-57
2023/06/24 02:58:31;;;;;;;5.30;4.50;;;;;;;17.67;72.16;100635.27;104077;278;122899;-57
2023/06/24 03:01:06;;;;;;;6.30;5.30;;;;;;;17.71;72.28;100631.52;104064;277;104587;-57
2023/06/24 03:03:41;;;;;;;5.80;4.70;;;;;;;17.78;72.38;100635.30;104281;277;114769;-57
2023/06/24 03:06:17;;;;;;;6.00;4.90;;;;;;;17.83;72.44;100639.09;104776;277;97009;-56
2023/06/24 03:08:52;;;;;;;6.10;4.70;;;;;;;17.89;72.38;100638.16;104802;277;97209;-54
2023/06/24 03:11:28;;;;;;;6.30;5.00;;;;;;;17.97;72.49;100646.02;104317;277;121020;-54
2023/06/24 03:14:04;;;;;;;6.40;4.90;;;;;;;18.02;72.52;100646.61;104336;277;105187;-54
2023/06/24 03:16:39;;;;;;;5.40;4.70;;;;;;;18.06;72.59;100648.20;104322;277;113382;-54
2023/06/24 03:19:13;;;;;;;7.50;5.10;;;;;;;18.11;72.35;100650.09;104317;277;94388;-54
2023/06/24 03:21:47;;;;;;;5.50;4.60;;;;;;;18.19;72.32;100653.02;104360;277;97935;-54
2023/06/24 03:24:20;;;;;;;7.90;5.00;;;;;;;18.29;72.54;100653.33;104334;277;118393;-56
2023/06/24 03:26:56;;;;;;;6.60;4.80;;;;;;;18.39;72.42;100655.98;104310;277;104356;-56
2023/06/24 03:29:30;;;;;;;6.60;4.90;;;;;;;18.52;72.27;100656.19;104808;277;113685;-57
2023/06/24 03:32:04;;;;;;;7.80;4.90;;;;;;;18.83;72.03;100656.58;104299;277;97174;-57
2023/06/24 03:34:37;;;;;;;;;;;;;;;19.27;71.59;100658.67;104374;277;98302;-57
2023/06/24 03:37:11;;;;;;;6.80;5.50;;;;;;;19.53;71.34;100659.21;104778;281;119343;-57
2023/06/24 03:39:45;;;;;;;5.90;4.80;;;;;;;20.15;70.47;100656.48;104310;277;104613;-54
2023/06/24 03:42:19;;;;;;;6.30;5.20;;;;;;;20.39;69.90;100656.62;104769;277;113785;-54
2023/06/24 03:44:53;;;;;;;6.90;5.50;;;;;;;20.42;69.40;100663.09;104339;277;93912;-57
2023/06/24 03:47:27;;;;;;;6.40;5.30;;;;;;;20.21;69.13;100660.94;104815;277;96963;-57
2023/06/24 03:50:00;;;;;;;7.00;5.10;;;;;;;20.00;69.14;100663.59;104066;277;121011;-57
2023/06/24 03:52:34;;;;;;;6.80;5.00;;;;;;;19.87;69.32;100673.63;104333;277;105921;-57
2023/06/24 03:55:10;;;;;;;5.90;5.20;;;;;;;19.80;69.42;100674.47;104319;277;114430;-56
2023/06/24 03:57:44;;;;;;;9.10;5.30;;;;;;;19.85;69.40;100675.95;104309;277;94887;-57
2023/06/24 04:00:20;;;;;;;6.40;5.10;;;;;;;19.92;69.34;100672.43;104802;277;96874;-54
2023/06/24 04:02:54;;;;;;;6.40;5.40;;;;;;;19.96;69.55;100671.41;104786;277;120558;-54
2023/06/24 04:05:28;;;;;;;7.30;5.20;;;;;;;20.16;69.33;100668.92;104310;277;106109;-54
2023/06/24 04:08:05;;;;;;;7.90;4.70;;;;;;;20.27;69.01;100668.98;104312;277;113185;-54
2023/06/24 04:10:39;;;;;;;6.00;4.90;;;;;;;20.20;69.04;100669.19;104809;277;96209;-57
2023/06/24 04:13:33;;;;;;;7.70;5.30;;;;;;;20.26;68.72;100669.48;104315;278;96450;-55
2023/06/24 04:16:27;;;;;;;6.20;5.10;;;;;;;20.51;68.68;100670.61;104279;277;120913;-54
2023/06/24 04:18:59;;;;;;;;;;;;;;;20.86;68.53;100674.05;104325;277;106228;-57
2023/06/24 04:21:33;;;;;;;5.90;5.10;;;;;;;21.76;68.17;100672.42;104307;277;114396;-57
2023/06/24 04:24:08;;;;;;;6.80;5.50;;;;;;;22.29;66.84;100667.95;104331;277;93500;-54
2023/06/24 04:26:42;;;;;;;6.20;4.80;;;;;;;22.39;66.29;100668.83;104329;277;97458;-54
2023/06/24 04:29:16;;;;;;;6.80;5.30;;;;;;;22.42;65.49;100668.41;104337;277;119932;-57
2023/06/24 04:31:50;;;;;;;5.70;4.90;;;;;;;22.38;65.36;100672.11;104296;277;105570;-57
2023/06/24 04:34:24;;;;;;;5.30;4.30;;;;;;;22.37;64.94;100666.05;104313;277;114238;-57
2023/06/24 04:36:57;;;;;;;7.20;4.70;;;;;;;22.19;64.76;100660.58;104307;277;95075;-61
2023/06/24 04:39:31;;;;;;;5.80;4.70;;;;;;;22.11;64.71;100655.42;104810;277;98489;-57
2023/06/24 04:42:05;;;;;;;;;;;;;;;22.30;64.53;100654.20;104840;277;120862;-57
2023/06/24 04:44:39;;;;;;;5.80;4.80;;;;;;;22.32;64.36;100657.64;104332;277;103773;-58
2023/06/24 04:47:13;;;;;;;4.50;4.10;;;;;;;22.33;63.99;100659.79;104300;281;114117;-58
2023/06/24 04:49:47;;;;;;;7.10;4.40;;;;;;;22.37;63.60;100660.60;104281;277;93855;-54
2023/06/24 04:52:21;;;;;;;7.80;4.30;;;;;;;22.27;63.63;100662.37;104337;277;96621;-54
2023/06/24 04:54:55;;;;;;;6.70;4.60;;;;;;;22.14;63.65;100665.58;104337;277;121277;-58
2023/06/24 04:57:30;;;;;;;;;;;;;;;22.02;63.80;100668.20;104136;278;103868;-58
2023/06/24 05:00:04;;;;;;;5.70;4.40;;;;;;;21.97;63.68;100667.09;104785;277;114028;-54
2023/06/24 05:02:38;;;;;;;10.60;5.00;;;;;;;21.89;63.65;100666.90;104312;277;94360;-54
2023/06/24 05:05:10;;;;;;;;;;;;;;;21.88;63.52;100670.23;104832;277;96462;-54
2023/06/24 05:07:44;;;;;;;6.40;3.90;;;;;;;21.86;63.81;100672.07;104305;277;120202;-54
2023/06/24 05:10:18;;;;;;;7.70;4.70;;;;;;;21.74;63.90;100672.46;104324;277;105424;-57
2023/06/24 05:12:50;;;;;;;;;;;;;;;21.70;63.94;100677.80;104797;277;114212;-57
2023/06/24 05:15:24;;;;;;;5.40;4.30;;;;;;;21.74;64.12;100684.01;104317;275;94192;-54
2023/06/24 05:17:58;;;;;;;6.40;4.20;;;;;;;21.71;64.18;100685.72;104793;277;96952;-54
2023/06/24 05:20:32;;;;;;;4.90;4.10;;;;;;;21.73;64.15;100691.92;104769;277;119866;-54
2023/06/24 05:23:04;;;;;;;;;;;;;;;21.77;64.22;100688.94;104795;277;104930;-54
2023/06/24 05:25:38;;;;;;;6.00;4.60;;;;;;;21.73;64.25;100690.22;104306;277;114074;-57
2023/06/24 05:28:10;;;;;;;;;;;;;;;21.80;63.96;100688.59;104778;277;92769;-57
2023/06/24 05:30:45;;;;;;;4.60;3.80;;;;;;;22.05;64.06;100695.66;104358;277;97566;-54
2023/06/24 05:33:19;;;;;;;4.60;4.10;;;;;;;22.30;63.94;100698.63;104306;277;119518;-54
2023/06/24 05:35:52;;;;;;;;;;;;;;;22.67;63.72;100700.88;104365;277;105498;-54
2023/06/24 05:38:27;;;;;;;4.90;4.20;;;;;;;22.91;63.51;100704.70;104761;277;113644;-54
2023/06/24 05:41:02;;;;;;;4.60;4.00;;;;;;;23.19;62.89;100707.30;104336;277;92677;-58
2023/06/24 05:43:36;;;;;;;5.40;4.40;;;;;;;23.41;62.29;100710.94;104347;277;96383;-55
2023/06/24 05:46:11;;;;;;;5.40;4.20;;;;;;;23.63;62.15;100718.02;104321;277;119613;-54
2023/06/24 05:48:48;;;;;;;5.90;4.00;;;;;;;23.95;61.73;100720.52;104347;277;105289;-58
2023/06/24 05:51:25;;;;;;;6.60;4.20;;;;;;;24.72;61.25;100719.41;104312;277;112932;-56
2023/06/24 05:54:00;;;;;;;5.00;4.20;;;;;;;26.31;59.67;100715.84;104335;277;94484;-57
2023/06/24 05:56:36;;;;;;;6.50;3.80;;;;;;;27.85;57.84;100722.25;104762;277;96437;-53
2023/06/24 05:59:10;;;;;;;4.80;3.70;;;;;;;28.68;55.40;100724.69;104348;277;120773;-53
2023/06/24 06:01:44;;;;;;;5.80;4.10;;;;;;;28.56;54.06;100724.36;104284;277;105160;-54
2023/06/24 06:04:21;;;;;;;5.10;4.10;;;;;;;28.07;53.68;100726.64;104305;277;112865;-57
2023/06/24 06:06:55;;;;;;;3.90;3.60;;;;;;;27.45;53.33;100722.14;104293;277;93437;-57
2023/06/24 06:09:30;;;;;;;4.70;3.80;;;;;;;26.63;53.38;100719.19;104343;276;96773;-54
2023/06/24 06:12:06;;;;;;;3.70;3.30;;;;;;;26.23;53.57;100717.42;104312;277;120773;-57
2023/06/24 06:14:40;;;;;;;5.90;3.60;;;;;;;26.01;54.48;100720.72;104760;277;105773;-57
2023/06/24 06:17:17;;;;;;;4.50;3.90;;;;;;;25.72;54.44;100724.09;104264;277;114776;-57
2023/06/24 06:19:51;;;;;;;5.30;4.20;;;;;;;25.56;54.68;100723.30;104306;277;93451;-58
2023/06/24 06:22:25;;;;;;;7.00;3.80;;;;;;;26.12;54.75;100728.72;104335;277;96876;-58
2023/06/24 06:25:00;;;;;;;5.00;4.50;;;;;;;26.81;54.34;100727.83;104331;277;120948;-55
2023/06/24 06:27:34;;;;;;;5.10;3.90;;;;;;;27.48;53.47;100732.48;104074;277;104491;-58
2023/06/24 06:30:15;;;;;;;6.70;4.00;;;;;;;28.08;52.50;100729.61;102661;277;2277082;-58
2023/06/24 06:32:52;;;;;;;5.00;4.10;;;;;;;28.55;51.77;100727.10;104357;277;92196;-55
2023/06/24 06:35:29;;;;;;;4.70;3.80;;;;;;;29.27;50.98;100720.50;104361;277;96898;-54
2023/06/24 06:38:06;;;;;;;4.40;4.00;;;;;;;29.78;49.76;100721.45;104313;277;120440;-54
2023/06/24 06:40:46;;;;;;;4.80;3.80;;;;;;;30.06;49.03;100721.79;104347;277;104703;-58
2023/06/24 06:43:21;;;;;;;6.40;3.80;;;;;;;30.18;48.07;100722.59;104322;277;112151;-58
2023/06/24 06:45:57;;;;;;;6.10;4.10;;;;;;;30.08;47.81;100726.29;104056;278;92564;-58
2023/06/24 06:48:32;;;;;;;5.50;4.00;;;;;;;30.34;47.34;100726.66;104079;277;97917;-56
2023/06/24 06:51:09;;;;;;;5.80;4.20;;;;;;;29.93;46.99;100726.52;104304;277;119462;-54
2023/06/24 06:53:46;;;;;;;4.90;4.10;;;;;;;29.60;47.18;100727.31;104723;277;104758;-57
2023/06/24 06:56:30;;;;;;;5.30;4.10;;;;;;;29.79;46.62;100727.56;104270;277;114078;-58
2023/06/24 06:59:07;;;;;;;5.10;4.20;;;;;;;29.75;46.49;100727.13;104054;277;92303;-63
2023/06/24 07:01:43;;;;;;;5.80;4.20;;;;;;;30.10;46.66;100730.73;104333;277;97860;-55
2023/06/24 07:04:19;;;;;;;5.10;3.80;;;;;;;30.19;45.83;100726.05;104133;277;119498;-57
2023/06/24 07:06:56;;;;;;;4.90;4.00;;;;;;;30.27;45.63;100726.59;104098;278;104808;-57
2023/06/24 07:09:31;;;;;;;4.30;3.80;;;;;;;30.80;45.44;100722.09;103964;277;113012;-56
2023/06/24 07:12:07;;;;;;;5.90;3.70;;;;;;;31.62;44.96;100721.35;104293;277;92395;-56
2023/06/24 07:14:42;;;;;;;4.50;3.80;;;;;;;32.11;43.53;100725.25;104733;277;96281;-55
2023/06/24 07:17:19;;;;;;;5.40;3.90;;;;;;;32.50;42.40;100719.95;104327;277;119686;-55
2023/06/24 07:19:54;;;;;;;3.70;3.40;;;;;;;32.91;41.63;100720.08;104369;277;104326;-57
2023/06/24 07:22:45;;;;;;;4.40;3.50;;;;;;;33.24;41.62;100715.15;104321;277;114346;-59
2023/06/24 07:25:32;;;;;;;4.40;3.50;;;;;;;33.28;40.24;100711.82;104319;277;93105;-59
2023/06/24 07:28:10;;;;;;;4.50;3.30;;;;;;;33.10;39.79;100708.16;104095;278;96886;-59
2023/06/24 07:30:48;;;;;;;3.40;2.80;;;;;;;33.35;39.97;100701.09;104752;277;120489;-54
2023/06/24 07:33:26;;;;;;;4.00;3.00;;;;;;;33.50;39.61;100703.02;104331;277;104179;-55
2023/06/24 07:36:02;;;;;;;4.10;2.60;;;;;;;33.59;39.00;100702.70;104326;277;113688;-59
2023/06/24 07:38:39;;;;;;;3.90;2.70;;;;;;;33.46;38.01;100711.57;104313;277;93535;-56
2023/06/24 07:41:15;;;;;;;4.00;2.90;;;;;;;33.29;36.98;100710.73;104350;277;96828;-56
2023/06/24 07:43:52;;;;;;;3.60;2.60;;;;;;;32.66;36.25;100717.98;104316;277;119891;-55
2023/06/24 07:46:31;;;;;;;4.00;2.70;;;;;;;32.55;36.85;100715.88;104319;277;105168;-55
2023/06/24 07:49:07;;;;;;;4.00;2.80;;;;;;;32.12;36.65;100716.49;104307;277;114000;-55
2023/06/24 07:55:25;;;;;;;3.30;2.90;;;;;;;32.42;37.12;100720.69;104326;276;96767;-54
2023/06/24 07:58:02;;;;;;;3.90;3.30;;;;;;;32.44;36.49;100718.62;104345;277;119289;-54
2023/06/24 08:00:42;;;;;;;3.70;3.10;;;;;;;32.83;36.84;100724.09;104349;277;105793;-55
2023/06/24 08:03:19;;;;;;;3.30;3.00;;;;;;;33.14;36.52;100730.70;104324;277;112818;-55
2023/06/24 08:05:56;;;;;;;3.60;3.20;;;;;;;33.14;36.17;100727.40;104341;277;92983;-54
2023/06/24 08:08:31;;;;;;;4.20;2.80;;;;;;;33.65;35.51;100723.23;104366;277;95637;-55
2023/06/24 08:11:07;;;;;;;3.20;2.90;;;;;;;33.94;35.08;100726.47;104117;277;118600;-58
2023/06/24 08:13:48;;;;;;;4.60;3.00;;;;;;;33.76;34.71;100729.26;104099;277;104301;-55
2023/06/24 08:16:53;;;;;;;3.70;2.90;;;;;;;33.43;33.84;100726.46;104096;279;113469;-55
2023/06/24 08:19:43;;;;;;;2.90;2.60;;;;;;;33.56;34.08;100732.51;104309;277;93845;-53
2023/06/24 08:22:32;;;;;;;3.60;2.70;;;;;;;33.46;33.28;100733.67;104140;277;96882;-60
2023/06/24 08:25:22;;;;;;;3.00;2.70;;;;;;;33.21;33.13;100737.35;104798;277;119335;-63
2023/06/24 08:28:03;;;;;;;3.70;2.90;;;;;;;33.53;33.48;100733.61;104116;277;107429;-63
2023/06/24 08:30:41;;;;;;;8.30;3.10;;;;;;;33.54;33.46;100726.02;104330;277;113574;-65
2023/06/24 08:33:17;;;;;;;3.20;2.60;;;;;;;33.73;33.48;100730.23;104105;277;93090;-64
2023/06/24 08:36:08;;;;;;;3.70;2.60;;;;;;;33.82;32.94;100733.81;104348;277;97111;-66
2023/06/24 08:38:43;;;;;;;;;;;;;;;33.60;32.98;100735.17;104406;277;118104;-65
2023/06/24 08:41:18;;;;;;;3.20;2.60;;;;;;;33.37;32.81;100742.52;104402;313;105504;-65
2023/06/24 08:43:53;;;;;;;3.00;2.70;;;;;;;33.11;33.01;100745.41;104084;277;114867;-65
2023/06/24 08:46:29;;;;;;;3.30;3.00;;;;;;;32.89;32.99;100739.57;104323;277;92405;-65
2023/06/24 08:49:17;;;;;;;3.50;2.60;;;;;;;32.57;33.20;100749.44;104374;277;96791;-63
2023/06/24 08:51:55;;;;;;;3.90;2.80;;;;;;;32.02;33.40;100749.12;104321;277;119212;-61
2023/06/24 08:54:31;;;;;;;3.50;2.90;;;;;;;31.49;33.79;100751.35;104350;277;103658;-62
2023/06/24 08:57:07;;;;;;;3.30;3.00;;;;;;;30.94;34.26;100752.52;104794;277;114652;-63
2023/06/24 08:59:42;;;;;;;3.10;2.80;;;;;;;30.53;34.81;100757.95;104306;277;94580;-62
2023/06/24 09:02:16;;;;;;;4.20;3.40;;;;;;;30.29;35.05;100759.76;104366;276;97427;-62
2023/06/24 09:04:54;;;;;;;5.20;3.20;;;;;;;30.19;35.42;100766.28;104337;277;120308;-62
2023/06/24 09:07:32;;;;;;;3.60;3.00;;;;;;;30.00;35.54;100771.13;104345;276;103118;-66
2023/06/24 09:10:11;;;;;;;5.50;3.30;;;;;;;29.22;35.15;100778.25;104794;277;114113;-65
2023/06/24 09:12:49;;;;;;;4.90;3.20;;;;;;;28.43;35.71;100781.03;104792;277;94079;-64
2023/06/24 09:15:24;;;;;;;3.90;3.30;;;;;;;28.16;36.59;100777.42;104819;277;95767;-64
2023/06/24 09:17:59;;;;;;;3.30;3.00;;;;;;;28.01;37.13;100779.09;104773;276;119439;-63
2023/06/24 09:20:39;;;;;;;3.70;3.30;;;;;;;27.86;37.33;100772.23;104344;277;106216;-64
2023/06/24 09:23:13;;;;;;;4.00;3.60;;;;;;;27.97;37.62;100775.79;104725;277;114208;-65
2023/06/24 09:25:56;;;;;;;3.80;3.50;;;;;;;28.23;37.65;100772.50;104349;276;92394;-64
2023/06/24 09:28:32;;;;;;;3.30;3.00;;;;;;;28.58;37.56;100766.53;104339;277;96227;-64
2023/06/24 09:31:11;;;;;;;3.90;3.40;;;;;;;28.95;37.62;100765.11;104311;276;119688;-64
2023/06/24 09:33:46;;;;;;;5.80;3.50;;;;;;;28.87;37.48;100760.68;104335;277;105068;-63
2023/06/24 09:36:21;;;;;;;3.70;3.10;;;;;;;29.04;37.48;100762.52;104344;277;114581;-65
2023/06/24 09:38:57;;;;;;;4.20;3.10;;;;;;;28.94;37.17;100767.80;104320;277;94913;-63
2023/06/24 09:41:31;;;;;;;4.70;3.40;;;;;;;28.55;36.01;100770.17;104785;277;97498;-58
2023/06/24 09:44:08;;;;;;;5.80;3.50;;;;;;;28.37;36.10;100775.83;104767;280;120134;-59
2023/06/24 09:46:44;;;;;;;3.40;3.10;;;;;;;28.10;36.55;100771.55;104341;277;103992;-55
2023/06/24 09:49:20;;;;;;;3.70;3.20;;;;;;;28.03;36.86;100769.95;104315;276;114382;-55
2023/06/24 09:51:58;;;;;;;5.70;3.50;;;;;;;28.11;37.11;100766.20;104115;277;93847;-59
2023/06/24 09:54:32;;;;;;;3.70;3.30;;;;;;;28.26;37.56;100768.86;104348;276;96373;-59
2023/06/24 09:57:09;;;;;;;4.00;3.60;;;;;;;28.51;37.80;100764.89;104224;277;120694;-62
2023/06/24 09:59:46;;;;;;;4.70;3.50;;;;;;;28.63;37.55;100766.92;104612;277;104862;-62
2023/06/24 10:02:23;;;;;;;4.40;3.50;;;;;;;28.36;37.61;100765.20;104184;277;113830;-62
2023/06/24 10:05:00;;;;;;;5.20;3.50;;;;;;;28.59;38.38;100763.96;104049;279;95843;-62
2023/06/24 10:07:35;;;;;;;5.20;3.10;;;;;;;28.65;38.21;100768.07;104622;277;96673;-62
2023/06/24 10:10:12;;;;;;;5.50;3.40;;;;;;;28.45;37.77;100767.75;104623;277;118228;-62
2023/06/24 10:12:47;;;;;;;3.60;3.30;;;;;;;28.36;37.90;100765.94;104049;279;104291;-62
2023/06/24 10:15:23;;;;;;;3.40;3.10;;;;;;;28.44;38.09;100770.11;104182;277;114078;-62
2023/06/24 10:18:04;;;;;;;3.90;3.50;;;;;;;28.55;38.02;100765.13;104184;277;94068;-62
2023/06/24 10:20:41;;;;;;;5.40;3.20;;;;;;;28.61;38.27;100765.54;104236;277;97075;-60
2023/06/24 10:23:15;;;;;;;4.50;3.50;;;;;;;28.68;38.50;100759.34;104188;277;120043;-61
2023/06/24 10:25:51;;;;;;;6.00;3.90;;;;;;;28.83;38.57;100762.23;104214;277;105525;-61
2023/06/24 10:28:25;;;;;;;4.30;3.70;;;;;;;28.87;38.50;100764.96;104203;277;113821;-62
2023/06/24 10:31:01;;;;;;;5.40;3.50;;;;;;;29.00;38.42;100766.36;104191;277;94184;-55
2023/06/24 10:33:41;;;;;;;4.00;3.30;;;;;;;29.10;38.07;100769.27;104246;277;98181;-57
2023/06/24 10:36:40;;;;;;;6.20;3.60;;;;;;;29.11;37.54;100770.56;104034;277;120919;-54
2023/06/24 10:39:46;;;;;;;3.40;3.00;;;;;;;29.22;37.37;100763.13;104210;277;106116;-54
2023/06/24 10:42:46;;;;;;;5.40;3.40;;;;;;;29.43;37.65;100759.98;104585;277;113286;-58
2023/06/24 10:45:23;;;;;;;6.10;3.70;;;;;;;29.36;37.31;100756.44;104226;277;92965;-55
2023/06/24 10:48:00;;;;;;;4.90;3.20;;;;;;;29.25;37.34;100761.91;104226;277;98688;-55
2023/06/24 10:50:34;;;;;;;3.30;3.00;;;;;;;29.10;37.62;100767.20;104234;277;118401;-58
2023/06/24 10:53:10;;;;;;;4.20;3.80;;;;;;;28.85;37.12;100771.98;104238;277;104350;-59
2023/06/24 10:55:47;;;;;;;4.50;3.10;;;;;;;28.21;37.13;100767.81;104701;277;113533;-55
2023/06/24 10:58:24;;;;;;;3.30;3.00;;;;;;;28.00;37.32;100767.54;104737;277;92479;-54
2023/06/24 11:01:15;;;;;;;4.80;3.40;;;;;;;27.87;37.70;100772.01;104130;277;96464;-54
2023/06/24 11:03:49;;;;;;;4.40;3.70;;;;;;;27.67;38.15;100769.40;104328;276;120342;-54
2023/06/24 11:06:24;;;;;;;6.10;3.70;;;;;;;27.51;38.94;100770.39;104345;277;105025;-57
2023/06/24 11:09:04;;;;;;;4.30;3.70;;;;;;;27.46;39.32;100770.20;104292;277;114085;-53
2023/06/24 11:11:40;;;;;;;3.60;3.10;;;;;;;27.34;39.42;100775.06;104773;277;94504;-59
2023/06/24 11:14:18;;;;;;;4.80;3.60;;;;;;;27.15;39.45;100777.18;104351;277;96977;-58
2023/06/24 11:16:53;;;;;;;5.80;3.30;;;;;;;26.96;39.70;100776.25;104314;277;120600;-57
2023/06/24 11:19:27;;;;;;;5.80;3.80;;;;;;;26.95;39.95;100778.98;104132;277;103680;-57
2023/06/24 11:22:04;;;;;;;4.60;3.80;;;;;;;26.76;40.31;100782.31;104738;277;113415;-54
2023/06/24 11:24:39;;;;;;;5.00;3.40;;;;;;;26.57;40.29;100783.02;104328;277;94189;-53
2023/06/24 11:27:14;;;;;;;4.50;3.60;;;;;;;26.53;40.58;100784.60;104788;280;96425;-57
2023/06/24 11:29:49;;;;;;;5.60;4.20;;;;;;;26.46;41.24;100786.96;104299;277;119786;-57
2023/06/24 11:32:23;;;;;;;4.10;3.40;;;;;;;26.40;41.50;100786.54;104304;277;104623;-57
2023/06/24 11:34:58;;;;;;;4.50;3.50;;;;;;;26.25;41.36;100788.34;104763;277;112454;-57
2023/06/24 11:37:35;;;;;;;4.10;3.20;;;;;;;26.13;41.34;100789.42;104337;277;93378;-54
2023/06/24 11:40:13;;;;;;;4.70;3.60;;;;;;;26.03;41.48;100796.37;104120;278;99287;-57
2023/06/24 11:42:50;;;;;;;4.30;3.90;;;;;;;25.98;41.78;100795.04;104333;277;120102;-58
2023/06/24 11:45:27;;;;;;;7.20;4.30;;;;;;;25.80;41.71;100791.59;104358;277;105344;-56
2023/06/24 11:48:09;;;;;;;4.10;3.50;;;;;;;25.58;41.46;100792.91;104296;276;114828;-57
2023/06/24 11:50:43;;;;;;;4.50;3.30;;;;;;;25.45;41.72;100794.52;104338;277;94789;-58
2023/06/24 11:53:17;;;;;;;4.70;3.40;;;;;;;25.39;42.09;100794.45;104331;277;96908;-58
2023/06/24 11:55:56;;;;;;;3.80;3.00;;;;;;;25.39;42.61;100795.79;104334;277;119648;-56
2023/06/24 11:58:35;;;;;;;3.90;3.50;;;;;;;25.45;42.81;100797.49;104787;277;104962;-57
2023/06/24 12:01:11;;;;;;;4.50;3.50;;;;;;;25.43;42.62;100798.55;104108;277;115263;-59
2023/06/24 12:03:45;;;;;;;5.40;3.40;;;;;;;25.43;42.91;100795.66;104333;277;94939;-61
2023/06/24 12:06:19;;;;;;;15.10;6.40;;;;;;;25.48;43.35;100800.50;104326;277;97187;-61
2023/06/24 12:08:54;;;;;;;6.90;3.70;;;;;;;25.58;43.66;100795.58;104370;277;119388;-61
2023/06/24 12:11:28;;;;;;;24.50;10.80;;;;;;;25.66;43.44;100796.50;104342;277;105527;-61